createdAt,value
2023-03-24T00:00:34.946Z,99541.91
2023-03-24T00:03:02.822Z,99549.91
2023-03-24T00:05:30.752Z,99548.78
2023-03-24T00:08:02.241Z,99545.69
2023-03-24T00:10:34.622Z,99534.78
2023-03-24T00:13:02.235Z,99544.97
2023-03-24T00:15:29.669Z,99538.72
2023-03-24T00:17:58.212Z,99551.91
2023-03-24T00:20:26.893Z,99541.38
2023-03-24T00:22:58.631Z,99525.38
2023-03-24T00:25:36.422Z,99541.31
2023-03-24T00:28:07.232Z,99534.38
2023-03-24T00:30:35.544Z,99536.53
2023-03-24T00:33:04.326Z,99516.47
2023-03-24T00:35:31.561Z,99532.69
2023-03-24T00:37:58.637Z,99523.84
2023-03-24T00:40:25.814Z,99537.41
2023-03-24T00:42:53.011Z,99535.81
2023-03-24T00:45:23.563Z,99524.00
2023-03-24T00:47:54.502Z,99524.50
2023-03-24T00:50:33.541Z,99528.22
2023-03-24T00:53:02.202Z,99524.47
2023-03-24T00:55:29.359Z,99537.19
2023-03-24T00:57:57.199Z,99538.72
2023-03-24T01:00:27.139Z,99538.09
2023-03-24T01:02:57.405Z,99555.84
2023-03-24T01:05:30.816Z,99548.63
2023-03-24T01:08:03.590Z,99580.91
2023-03-24T01:10:35.121Z,99602.84
2023-03-24T01:13:02.952Z,99620.56
2023-03-24T01:15:36.519Z,99625.00
2023-03-24T01:18:03.987Z,99645.25
2023-03-24T01:20:35.843Z,99643.34
2023-03-24T01:23:07.583Z,99661.28
2023-03-24T01:25:37.290Z,99666.50
2023-03-24T01:28:04.896Z,99663.19
2023-03-24T01:30:34.528Z,99666.13
2023-03-24T01:33:04.015Z,99682.53
2023-03-24T01:35:31.331Z,99680.75
2023-03-24T01:37:59.798Z,99689.47
2023-03-24T01:40:31.280Z,99701.81
2023-03-24T01:42:59.780Z,99699.84
2023-03-24T01:45:39.025Z,99704.91
2023-03-24T01:48:22.392Z,99705.53
2023-03-24T01:51:21.555Z,99700.19
2023-03-24T01:53:56.940Z,99698.69
2023-03-24T01:56:25.783Z,99698.94
2023-03-24T01:59:02.945Z,99707.72
2023-03-24T02:01:31.585Z,99721.88
2023-03-24T02:04:04.080Z,99728.91
2023-03-24T02:06:35.587Z,99724.28
2023-03-24T02:09:04.387Z,99730.53
2023-03-24T02:11:34.348Z,99730.84
2023-03-24T02:14:02.742Z,99733.38
2023-03-24T02:16:58.682Z,99731.81
2023-03-24T02:19:45.099Z,99741.75
2023-03-24T02:22:43.189Z,99744.66
2023-03-24T02:25:53.483Z,99733.31
2023-03-24T02:28:55.534Z,99746.13
2023-03-24T02:31:25.730Z,99726.59
2023-03-24T02:34:04.706Z,99729.25
2023-03-24T02:36:55.318Z,99734.47
2023-03-24T02:40:10.443Z,99749.97
2023-03-24T02:43:08.081Z,99752.22
2023-03-24T02:45:41.216Z,99758.25
2023-03-24T02:48:36.447Z,99769.44
2023-03-24T02:51:50.842Z,99782.19
2023-03-24T02:54:42.339Z,99792.41
2023-03-24T02:57:23.489Z,99777.59
2023-03-24T03:00:13.909Z,99779.41
2023-03-24T03:02:51.974Z,99785.53
2023-03-24T03:05:36.231Z,99791.22
2023-03-24T03:08:07.419Z,99787.22
2023-03-24T03:10:40.196Z,99794.28
2023-03-24T03:13:16.600Z,99778.47
2023-03-24T03:15:48.892Z,99797.53
2023-03-24T03:18:32.978Z,99790.84
2023-03-24T03:21:07.781Z,99799.03
2023-03-24T03:24:15.404Z,99807.91
2023-03-24T03:26:46.180Z,99807.56
2023-03-24T03:29:22.063Z,99807.44
2023-03-24T03:32:08.108Z,99814.56
2023-03-24T03:34:48.111Z,99815.53
2023-03-24T03:37:28.317Z,99822.88
2023-03-24T03:40:23.363Z,99820.47
2023-03-24T03:42:51.424Z,99824.25
2023-03-24T03:45:19.080Z,99820.66
2023-03-24T03:47:46.878Z,99832.94
2023-03-24T03:50:14.212Z,99828.22
2023-03-24T03:52:41.771Z,99829.47
2023-03-24T03:55:09.632Z,99831.84
2023-03-24T03:57:36.998Z,99829.34
2023-03-24T04:00:14.490Z,99840.28
2023-03-24T04:02:58.485Z,99842.19
2023-03-24T04:05:39.924Z,99830.34
2023-03-24T04:08:25.190Z,99855.72
2023-03-24T04:11:17.667Z,99854.34
2023-03-24T04:14:39.017Z,99864.63
2023-03-24T04:17:54.657Z,99862.25
2023-03-24T04:20:48.382Z,99869.56
2023-03-24T04:23:32.414Z,99872.06
2023-03-24T04:26:26.392Z,99872.59
2023-03-24T04:29:30.050Z,99875.84
2023-03-24T04:32:19.465Z,99875.69
2023-03-24T04:35:03.400Z,99869.34
2023-03-24T04:37:38.194Z,99879.38
2023-03-24T04:40:12.442Z,99880.41
2023-03-24T04:42:48.232Z,99883.97
2023-03-24T04:45:17.180Z,99895.16
2023-03-24T04:47:49.859Z,99880.88
2023-03-24T04:50:30.887Z,99879.81
2023-03-24T04:52:58.712Z,99885.72
2023-03-24T04:55:49.763Z,99897.34
2023-03-24T04:58:22.439Z,99902.50
2023-03-24T05:00:51.297Z,99897.63
2023-03-24T05:03:19.246Z,99889.31
2023-03-24T05:05:51.448Z,99890.78
2023-03-24T05:08:19.878Z,99897.84
2023-03-24T05:10:47.422Z,99898.78
2023-03-24T05:13:15.440Z,99904.06
2023-03-24T05:15:43.267Z,99905.72
2023-03-24T05:18:11.134Z,99905.25
2023-03-24T05:20:38.328Z,99909.03
2023-03-24T05:23:05.699Z,99910.28
2023-03-24T05:25:32.987Z,99904.53
2023-03-24T05:28:00.157Z,99915.97
2023-03-24T05:30:27.259Z,99926.22
2023-03-24T05:32:54.272Z,99923.09
2023-03-24T05:35:21.370Z,99911.47
2023-03-24T05:37:48.634Z,99918.28
2023-03-24T05:40:15.849Z,99911.72
2023-03-24T05:42:43.453Z,99917.03
2023-03-24T05:45:12.058Z,99931.69
2023-03-24T05:47:39.156Z,99927.16
2023-03-24T05:50:06.883Z,99933.91
2023-03-24T05:52:34.902Z,99932.25
2023-03-24T05:55:02.850Z,99936.97
2023-03-24T05:57:34.813Z,99937.00
2023-03-24T06:00:07.905Z,99945.53
2023-03-24T06:02:35.025Z,99933.00
2023-03-24T06:05:02.042Z,99939.66
2023-03-24T06:07:30.675Z,99939.31
2023-03-24T06:10:03.589Z,99948.19
2023-03-24T06:12:30.998Z,99955.34
2023-03-24T06:14:58.295Z,99951.66
2023-03-24T06:17:25.739Z,99955.59
2023-03-24T06:19:52.704Z,99972.09
2023-03-24T06:22:20.968Z,99963.09
2023-03-24T06:24:50.026Z,99972.78
2023-03-24T06:27:18.822Z,99978.44
2023-03-24T06:29:45.893Z,99972.91
2023-03-24T06:32:12.906Z,99970.25
2023-03-24T06:34:40.788Z,99978.16
2023-03-24T06:37:08.062Z,99985.91
2023-03-24T06:39:35.255Z,99985.31
2023-03-24T06:42:02.351Z,99976.25
2023-03-24T06:44:29.371Z,99985.97
2023-03-24T06:46:56.565Z,99979.75
2023-03-24T06:49:23.840Z,99982.78
2023-03-24T06:51:50.923Z,99975.25
2023-03-24T06:54:17.960Z,99990.09
2023-03-24T06:56:45.044Z,99987.31
2023-03-24T06:59:12.155Z,100000.34
2023-03-24T07:01:39.726Z,100000.09
2023-03-24T07:04:07.375Z,100001.19
2023-03-24T07:06:40.435Z,100006.34
2023-03-24T07:09:10.505Z,100010.28
2023-03-24T07:11:40.063Z,100008.06
2023-03-24T07:14:07.379Z,100013.47
2023-03-24T07:16:34.428Z,100029.72
2023-03-24T07:19:01.452Z,100022.56
2023-03-24T07:21:28.487Z,100022.00
2023-03-24T07:23:55.741Z,100011.22
2023-03-24T07:26:22.746Z,100004.72
2023-03-24T07:28:50.319Z,100008.72
2023-03-24T07:31:17.373Z,100018.31
2023-03-24T07:33:44.399Z,100010.19
2023-03-24T07:36:11.763Z,100026.13
2023-03-24T07:38:38.765Z,100017.50
2023-03-24T07:41:06.211Z,100030.16
2023-03-24T07:43:33.287Z,100029.44
2023-03-24T07:46:00.713Z,100023.66
2023-03-24T07:48:28.007Z,100030.41
2023-03-24T07:50:55.077Z,100026.97
2023-03-24T07:53:22.295Z,100025.78
2023-03-24T07:55:49.562Z,100023.41
2023-03-24T07:58:16.898Z,100023.03
2023-03-24T08:00:44.755Z,100036.63
2023-03-24T08:03:15.617Z,100022.78
2023-03-24T08:05:44.222Z,100031.88
2023-03-24T08:08:11.693Z,100040.16
2023-03-24T08:10:38.821Z,100043.38
2023-03-24T08:13:05.939Z,100041.06
2023-03-24T08:15:33.122Z,100045.22
2023-03-24T08:18:00.299Z,100057.41
2023-03-24T08:20:29.639Z,100049.31
2023-03-24T08:22:56.834Z,100055.03
2023-03-24T08:25:26.242Z,100069.94
2023-03-24T08:28:00.563Z,100052.50
2023-03-24T08:30:31.178Z,100057.47
2023-03-24T08:33:02.223Z,100061.31
2023-03-24T08:35:38.996Z,100065.63
2023-03-24T08:38:08.324Z,100066.13
2023-03-24T08:40:36.991Z,100078.88
2023-03-24T08:43:10.462Z,100080.34
2023-03-24T08:45:38.061Z,100070.75
2023-03-24T08:48:07.950Z,100083.94
2023-03-24T08:50:40.264Z,100087.28
2023-03-24T08:53:09.106Z,100086.22
2023-03-24T08:55:37.948Z,100086.28
2023-03-24T08:58:05.001Z,100092.50
2023-03-24T09:00:32.189Z,100094.72
2023-03-24T09:03:01.259Z,100076.66
2023-03-24T09:05:43.167Z,100103.41
2023-03-24T09:08:12.477Z,100093.66
2023-03-24T09:10:41.539Z,100090.28
2023-03-24T09:13:09.055Z,100096.91
2023-03-24T09:15:36.720Z,100094.69
2023-03-24T09:18:04.079Z,100093.75
2023-03-24T09:20:31.326Z,100096.47
2023-03-24T09:22:58.426Z,100083.19
2023-03-24T09:25:25.722Z,100076.81
2023-03-24T09:27:52.837Z,100091.25
2023-03-24T09:30:20.083Z,100083.84
2023-03-24T09:32:47.255Z,100087.06
2023-03-24T09:35:15.636Z,100082.78
2023-03-24T09:37:43.954Z,100083.28
2023-03-24T09:40:30.683Z,100080.13
2023-03-24T09:43:09.421Z,100088.00
2023-03-24T09:45:55.015Z,100096.66
2023-03-24T09:48:41.612Z,100082.88
2023-03-24T09:51:28.851Z,100078.50
2023-03-24T09:54:46.782Z,100084.47
2023-03-24T09:57:42.454Z,100106.16
2023-03-24T10:00:21.338Z,100100.13
2023-03-24T10:02:51.960Z,100093.22
2023-03-24T10:05:58.264Z,100100.34
2023-03-24T10:08:43.129Z,100090.75
2023-03-24T10:11:48.853Z,100103.53
2023-03-24T10:14:44.309Z,100110.19
2023-03-24T10:17:57.042Z,100114.03
2023-03-24T10:21:24.595Z,100110.78
2023-03-24T10:23:58.351Z,100112.06
2023-03-24T10:26:46.260Z,100112.63
2023-03-24T10:29:25.432Z,100118.81
2023-03-24T10:31:59.761Z,100134.00
2023-03-24T10:34:33.353Z,100124.31
2023-03-24T10:37:04.378Z,100148.91
2023-03-24T10:42:03.388Z,100156.56
2023-03-24T10:44:31.332Z,100165.59
2023-03-24T10:47:03.731Z,100138.44
2023-03-24T10:49:31.342Z,100131.13
2023-03-24T10:52:06.384Z,100122.06
2023-03-24T10:54:33.400Z,100135.09
2023-03-24T10:57:00.831Z,100137.84
2023-03-24T10:59:58.479Z,100144.38
2023-03-24T11:02:33.073Z,100145.22
2023-03-24T11:05:19.140Z,100158.19
2023-03-24T11:07:49.621Z,100164.25
2023-03-24T11:10:25.715Z,100157.00
2023-03-24T11:12:57.728Z,100139.91
2023-03-24T11:15:30.584Z,100138.50
2023-03-24T11:18:14.219Z,100146.25
2023-03-24T11:20:52.886Z,100141.75
2023-03-24T11:23:39.598Z,100144.47
2023-03-24T11:26:24.228Z,100143.63
2023-03-24T11:28:58.933Z,100150.03
2023-03-24T11:31:39.243Z,100149.91
2023-03-24T11:34:24.353Z,100171.66
2023-03-24T11:37:14.853Z,100158.09
2023-03-24T11:39:41.881Z,100153.81
2023-03-24T11:42:14.721Z,100143.34
2023-03-24T11:44:52.509Z,100153.03
2023-03-24T11:47:32.094Z,100143.56
2023-03-24T11:50:11.123Z,100148.94
2023-03-24T11:53:04.253Z,100136.94
2023-03-24T11:56:03.774Z,100134.53
2023-03-24T11:58:41.840Z,100121.94
2023-03-24T12:01:21.213Z,100117.91
2023-03-24T12:04:13.089Z,100109.53
2023-03-24T12:07:32.067Z,100104.50
2023-03-24T12:10:13.889Z,100112.69
2023-03-24T12:13:18.950Z,100102.16
2023-03-24T12:16:26.859Z,100112.84
2023-03-24T12:19:29.831Z,100116.53
2023-03-24T12:22:21.182Z,100119.84
2023-03-24T12:25:16.030Z,100115.28
2023-03-24T12:28:42.429Z,100112.84
2023-03-24T12:31:54.135Z,100110.78
2023-03-24T12:35:00.376Z,100114.31
2023-03-24T12:37:51.584Z,100090.69
2023-03-24T12:40:43.453Z,100096.81
2023-03-24T12:43:44.996Z,100094.06
2023-03-24T12:46:48.156Z,100106.06
2023-03-24T12:49:56.128Z,100089.16
2023-03-24T12:53:08.816Z,100096.44
2023-03-24T12:55:44.394Z,100090.63
2023-03-24T12:58:22.269Z,100090.16
2023-03-24T13:01:07.816Z,100094.44
2023-03-24T13:03:46.706Z,100088.81
2023-03-24T13:06:19.926Z,100067.03
2023-03-24T13:09:03.566Z,100082.97
2023-03-24T13:11:55.857Z,100078.03
2023-03-24T13:15:03.325Z,100075.97
2023-03-24T13:17:57.153Z,100076.50
2023-03-24T13:20:31.232Z,100071.63
2023-03-24T13:23:06.340Z,100070.44
2023-03-24T13:25:54.371Z,100055.19
2023-03-24T13:28:30.367Z,100064.97
2023-03-24T13:30:59.888Z,100054.28
2023-03-24T13:33:33.070Z,100059.22
2023-03-24T13:36:31.315Z,100062.66
2023-03-24T13:39:08.457Z,100063.50
2023-03-24T13:41:39.806Z,100064.47
2023-03-24T13:44:20.347Z,100062.81
2023-03-24T13:47:05.749Z,100066.09
2023-03-24T13:49:33.132Z,100071.09
2023-03-24T13:52:19.379Z,100065.50
2023-03-24T13:54:47.759Z,100072.81
2023-03-24T13:57:23.539Z,100087.22
2023-03-24T14:00:14.560Z,100074.03
2023-03-24T14:03:06.243Z,100073.44
2023-03-24T14:05:57.414Z,100064.50
2023-03-24T14:09:14.081Z,100063.03
2023-03-24T14:11:49.578Z,100058.22
2023-03-24T14:14:17.551Z,100058.69
2023-03-24T14:17:04.973Z,100051.50
2023-03-24T14:19:40.538Z,100035.38
2023-03-24T14:22:20.941Z,100043.72
2023-03-24T14:25:20.329Z,100041.84
2023-03-24T14:27:49.713Z,100044.13
2023-03-24T14:30:38.009Z,100033.44
2023-03-24T14:33:05.659Z,100031.69
2023-03-24T14:35:45.857Z,100045.63
2023-03-24T14:38:15.847Z,100040.78
2023-03-24T14:40:53.192Z,100051.59
2023-03-24T14:43:30.442Z,100042.03
2023-03-24T14:46:21.132Z,100040.09
2023-03-24T14:48:54.266Z,100040.94
2023-03-24T14:51:47.166Z,100042.97
2023-03-24T14:54:30.070Z,100054.16
2023-03-24T14:56:59.297Z,100039.50
2023-03-24T14:59:46.994Z,100047.22
2023-03-24T15:02:41.901Z,100043.75
2023-03-24T15:05:15.463Z,100049.25
2023-03-24T15:07:44.402Z,100039.28
2023-03-24T15:10:20.034Z,100034.19
2023-03-24T15:12:49.418Z,100019.63
2023-03-24T15:15:23.992Z,100022.22
2023-03-24T15:17:52.618Z,100023.28
2023-03-24T15:20:24.757Z,100009.72
2023-03-24T15:22:55.211Z,100010.34
2023-03-24T15:25:28.183Z,100001.56
2023-03-24T15:27:57.826Z,100008.72
2023-03-24T15:30:26.144Z,100007.13
2023-03-24T15:32:53.488Z,99992.94
2023-03-24T15:35:23.254Z,100000.81
2023-03-24T15:37:56.513Z,99997.06
2023-03-24T15:40:26.504Z,99997.28
2023-03-24T15:42:59.727Z,99991.81
2023-03-24T15:45:36.657Z,99991.06
2023-03-24T15:48:17.205Z,100003.47
2023-03-24T15:50:58.566Z,99997.41
2023-03-24T15:53:44.382Z,100005.66
2023-03-24T15:56:27.576Z,99990.25
2023-03-24T15:59:07.108Z,100009.00
2023-03-24T16:01:38.612Z,100005.69
2023-03-24T16:04:13.485Z,99998.34
2023-03-24T16:06:48.646Z,100005.28
2023-03-24T16:09:21.852Z,100000.09
2023-03-24T16:11:49.711Z,100003.13
2023-03-24T16:14:28.810Z,99999.00
2023-03-24T16:16:59.532Z,100002.22
2023-03-24T16:19:27.103Z,100006.56
2023-03-24T16:21:54.919Z,99992.72
2023-03-24T16:24:22.831Z,100004.00
2023-03-24T16:26:50.308Z,100007.63
2023-03-24T16:29:21.763Z,100002.19
2023-03-24T16:31:52.056Z,99996.41
2023-03-24T16:34:21.394Z,99997.28
2023-03-24T16:36:50.824Z,99994.94
2023-03-24T16:39:24.451Z,100016.09
2023-03-24T16:41:51.979Z,100011.09
2023-03-24T16:44:20.237Z,100026.88
2023-03-24T16:46:51.836Z,100033.94
2023-03-24T16:49:20.873Z,100028.09
2023-03-24T16:51:48.335Z,100017.78
2023-03-24T16:54:15.597Z,100016.81
2023-03-24T16:56:43.454Z,100018.22
2023-03-24T16:59:13.224Z,100015.72
2023-03-24T17:01:45.285Z,100018.78
2023-03-24T17:04:19.588Z,100034.84
2023-03-24T17:06:50.870Z,100020.94
2023-03-24T17:09:18.156Z,100021.88
2023-03-24T17:11:53.849Z,100033.41
2023-03-24T17:14:21.413Z,100031.59
2023-03-24T17:16:50.650Z,100021.56
2023-03-24T17:19:21.742Z,100026.31
2023-03-24T17:22:18.975Z,100017.38
2023-03-24T17:24:48.363Z,100022.66
2023-03-24T17:27:18.832Z,100013.03
2023-03-24T17:29:46.503Z,100017.16
2023-03-24T17:32:13.536Z,100019.63
2023-03-24T17:34:45.620Z,100016.66
2023-03-24T17:37:12.687Z,100023.41
2023-03-24T17:39:40.439Z,100018.88
2023-03-24T17:42:07.516Z,100023.13
2023-03-24T17:44:34.678Z,100028.09
2023-03-24T17:47:01.738Z,100013.97
2023-03-24T17:49:28.850Z,100019.75
2023-03-24T17:51:55.815Z,100019.72
2023-03-24T17:54:22.842Z,100034.69
2023-03-24T17:56:49.825Z,100037.06
2023-03-24T17:59:17.173Z,100042.88
2023-03-24T18:01:44.161Z,100035.81
2023-03-24T18:04:11.241Z,100052.81
2023-03-24T18:06:38.667Z,100044.84
2023-03-24T18:09:06.654Z,100048.44
2023-03-24T18:11:33.726Z,100056.06
2023-03-24T18:14:01.078Z,100059.81
2023-03-24T18:16:31.838Z,100048.63
2023-03-24T18:19:00.633Z,100050.41
2023-03-24T18:21:28.608Z,100051.91
2023-03-24T18:23:56.292Z,100053.28
2023-03-24T18:26:23.497Z,100039.88
2023-03-24T18:28:50.513Z,100057.56
2023-03-24T18:31:23.213Z,100052.34
2023-03-24T18:33:51.473Z,100047.84
2023-03-24T18:36:21.563Z,100043.28
2023-03-24T18:38:49.429Z,100053.88
2023-03-24T18:41:18.425Z,100046.94
2023-03-24T18:43:48.159Z,100039.66
2023-03-24T18:46:16.184Z,100054.25
2023-03-24T18:48:44.070Z,100042.88
2023-03-24T18:51:12.284Z,100033.88
2023-03-24T18:53:40.110Z,100050.06
2023-03-24T18:56:08.560Z,100045.91
2023-03-24T18:58:38.215Z,100038.59
2023-03-24T19:01:12.366Z,100039.19
2023-03-24T19:03:42.148Z,100045.53
2023-03-24T19:06:12.385Z,100032.03
2023-03-24T19:08:44.717Z,100032.13
2023-03-24T19:11:14.550Z,100042.44
2023-03-24T19:13:44.061Z,100037.94
2023-03-24T19:16:12.345Z,100032.66
2023-03-24T19:18:40.649Z,100036.66
2023-03-24T19:21:08.054Z,100033.75
2023-03-24T19:23:35.976Z,100049.66
2023-03-24T19:26:03.618Z,100065.84
2023-03-24T19:28:35.095Z,100058.50
2023-03-24T19:31:09.007Z,100074.81
2023-03-24T19:33:37.328Z,100085.56
2023-03-24T19:36:06.517Z,100089.91
2023-03-24T19:38:33.699Z,100078.72
2023-03-24T19:41:06.858Z,100078.72
2023-03-24T19:43:34.727Z,100088.91
2023-03-24T19:46:01.857Z,100090.44
2023-03-24T19:48:29.510Z,100097.16
2023-03-24T19:50:56.727Z,100088.75
2023-03-24T19:53:24.880Z,100083.09
2023-03-24T19:55:52.525Z,100088.22
2023-03-24T19:58:19.715Z,100091.66
2023-03-24T20:00:47.180Z,100088.22
2023-03-24T20:03:14.270Z,100091.09
2023-03-24T20:05:41.318Z,100088.16
2023-03-24T20:08:08.369Z,100081.50
2023-03-24T20:10:37.126Z,100083.00
2023-03-24T20:13:04.409Z,100079.44
2023-03-24T20:15:31.425Z,100084.53
2023-03-24T20:17:58.804Z,100077.34
2023-03-24T20:20:25.894Z,100072.50
2023-03-24T20:22:53.136Z,100075.84
2023-03-24T20:25:20.257Z,100076.88
2023-03-24T20:27:47.934Z,100078.22
2023-03-24T20:30:18.115Z,100067.72
2023-03-24T20:32:45.470Z,100061.44
2023-03-24T20:35:12.952Z,100069.19
2023-03-24T20:37:39.940Z,100062.91
2023-03-24T20:40:09.677Z,100069.56
2023-03-24T20:42:38.053Z,100065.78
2023-03-24T20:45:07.518Z,100072.34
2023-03-24T20:47:36.590Z,100077.22
2023-03-24T20:50:06.088Z,100081.78
2023-03-24T20:52:33.413Z,100092.44
2023-03-24T20:55:08.759Z,100082.47
2023-03-24T20:57:36.262Z,100095.06
2023-03-24T21:00:13.202Z,100098.34
2023-03-24T21:02:43.946Z,100096.91
2023-03-24T21:05:11.071Z,100102.69
2023-03-24T21:07:38.493Z,100101.53
2023-03-24T21:10:07.114Z,100091.41
2023-03-24T21:12:34.540Z,100091.84
2023-03-24T21:15:02.257Z,100084.47
2023-03-24T21:17:32.075Z,100090.28
2023-03-24T21:20:07.043Z,100090.09
2023-03-24T21:22:47.459Z,100069.03
2023-03-24T21:25:17.912Z,100089.50
2023-03-24T21:27:45.028Z,100082.41
2023-03-24T21:30:12.910Z,100080.50
2023-03-24T21:32:41.135Z,100078.16
2023-03-24T21:35:09.151Z,100081.53
2023-03-24T21:37:36.212Z,100074.97
2023-03-24T21:40:03.396Z,100079.44
2023-03-24T21:42:30.770Z,100093.91
2023-03-24T21:44:57.701Z,100089.34
2023-03-24T21:47:25.183Z,100085.50
2023-03-24T21:49:58.968Z,100079.81
2023-03-24T21:52:28.903Z,100087.03
2023-03-24T21:55:00.847Z,100082.53
2023-03-24T21:57:27.880Z,100084.69
2023-03-24T21:59:54.864Z,100084.19
2023-03-24T22:02:24.685Z,100087.78
2023-03-24T22:04:52.218Z,100086.91
2023-03-24T22:07:22.457Z,100081.91
2023-03-24T22:09:50.730Z,100091.59
2023-03-24T22:12:18.771Z,100087.94
2023-03-24T22:14:46.800Z,100089.13
2023-03-24T22:17:13.784Z,100094.69
2023-03-24T22:19:41.032Z,100096.25
2023-03-24T22:22:07.975Z,100099.06
2023-03-24T22:24:35.652Z,100095.31
2023-03-24T22:27:02.646Z,100084.94
2023-03-24T22:29:29.607Z,100094.97
2023-03-24T22:31:56.585Z,100090.28
2023-03-24T22:34:23.560Z,100087.13
2023-03-24T22:36:50.855Z,100090.53
2023-03-24T22:39:17.875Z,100091.41
2023-03-24T22:41:45.390Z,100081.91
2023-03-24T22:44:12.369Z,100097.00
2023-03-24T22:46:39.882Z,100093.53
2023-03-24T22:49:06.930Z,100085.06
2023-03-24T22:51:33.959Z,100088.78
2023-03-24T22:54:02.223Z,100101.78
2023-03-24T22:56:29.355Z,100111.94
2023-03-24T22:58:56.448Z,100102.69
2023-03-24T23:01:23.426Z,100105.41
2023-03-24T23:03:50.457Z,100100.69
2023-03-24T23:06:17.525Z,100100.16
2023-03-24T23:08:45.031Z,100113.13
2023-03-24T23:11:14.336Z,100110.28
2023-03-24T23:13:41.588Z,100123.03
2023-03-24T23:16:08.956Z,100111.38
2023-03-24T23:18:36.159Z,100105.19
2023-03-24T23:21:10.337Z,100112.22
2023-03-24T23:23:39.563Z,100117.88
2023-03-24T23:26:07.915Z,100112.78
2023-03-24T23:28:35.649Z,100121.13
2023-03-24T23:31:02.989Z,100116.41
2023-03-24T23:33:38.479Z,100113.34
2023-03-24T23:36:06.037Z,100119.22
2023-03-24T23:38:33.728Z,100100.34
2023-03-24T23:41:01.022Z,100125.25
2023-03-24T23:43:28.524Z,100082.16
2023-03-24T23:45:57.444Z,100104.66
2023-03-24T23:48:25.557Z,100093.38
2023-03-24T23:51:01.769Z,100109.69
2023-03-24T23:53:29.731Z,100115.66
2023-03-24T23:56:07.329Z,100103.13
2023-03-24T23:58:37.954Z,100095.44
